createdAt,value
2019-06-20T00:00:48.906Z,20.05
2019-06-20T00:03:15.738Z,20.02
2019-06-20T00:05:42.789Z,20.00
2019-06-20T00:08:09.805Z,19.96
2019-06-20T00:10:36.385Z,19.96
2019-06-20T00:13:03.489Z,19.89
2019-06-20T00:15:30.070Z,19.86
2019-06-20T00:17:56.762Z,19.81
2019-06-20T00:20:23.396Z,19.78
2019-06-20T00:22:49.964Z,19.79
2019-06-20T00:25:16.558Z,19.77
2019-06-20T00:27:43.140Z,19.73
2019-06-20T00:30:10.123Z,19.78
2019-06-20T00:32:36.695Z,19.71
2019-06-20T00:35:05.775Z,19.68
2019-06-20T00:37:32.378Z,19.75
2019-06-20T00:39:59.008Z,19.62
2019-06-20T00:42:26.035Z,19.63
2019-06-20T00:44:52.668Z,19.65
2019-06-20T00:47:19.227Z,19.65
2019-06-20T00:49:45.855Z,19.62
2019-06-20T00:52:12.482Z,19.49
2019-06-20T00:54:39.131Z,19.53
2019-06-20T00:57:05.775Z,19.51
2019-06-20T00:59:32.348Z,19.47
2019-06-20T01:01:58.962Z,19.46
2019-06-20T01:04:25.567Z,19.40
2019-06-20T01:06:53.080Z,19.40
2019-06-20T01:09:20.608Z,19.32
2019-06-20T01:11:47.241Z,19.16
2019-06-20T01:14:13.796Z,19.08
2019-06-20T01:16:40.697Z,19.13
2019-06-20T01:19:07.273Z,19.13
2019-06-20T01:21:35.004Z,19.17
2019-06-20T01:24:01.602Z,19.17
2019-06-20T01:26:28.500Z,19.19
2019-06-20T01:28:55.576Z,19.18
2019-06-20T01:31:22.181Z,19.20
2019-06-20T01:33:48.824Z,19.16
2019-06-20T01:36:15.437Z,19.15
2019-06-20T01:38:42.136Z,19.19
2019-06-20T01:41:09.209Z,19.19
2019-06-20T01:43:49.646Z,19.16
2019-06-20T01:46:04.358Z,19.14
2019-06-20T01:48:38.300Z,19.22
2019-06-20T01:51:10.297Z,19.26
2019-06-20T01:53:40.678Z,19.28
2019-06-20T01:56:13.986Z,19.30
2019-06-20T01:58:40.928Z,19.33
2019-06-20T02:01:07.883Z,19.32
2019-06-20T02:03:36.328Z,19.31
2019-06-20T02:06:03.986Z,19.29
2019-06-20T02:08:30.573Z,19.28
2019-06-20T02:10:59.011Z,19.26
2019-06-20T02:13:25.635Z,19.25
2019-06-20T02:15:52.179Z,19.22
2019-06-20T02:18:20.799Z,19.25
2019-06-20T02:20:53.035Z,19.22
2019-06-20T02:23:20.909Z,19.14
2019-06-20T02:25:48.519Z,19.13
2019-06-20T02:28:15.105Z,19.13
2019-06-20T02:30:41.839Z,19.12
2019-06-20T02:33:08.547Z,19.08
2019-06-20T02:35:35.287Z,19.02
2019-06-20T02:38:02.014Z,19.07
2019-06-20T02:40:28.662Z,19.07
2019-06-20T02:42:55.299Z,19.13
2019-06-20T02:45:23.350Z,19.12
2019-06-20T02:47:49.988Z,19.09
2019-06-20T02:50:17.082Z,19.15
2019-06-20T02:52:43.615Z,19.14
2019-06-20T02:55:10.660Z,19.14
2019-06-20T02:57:37.270Z,19.16
2019-06-20T03:00:07.941Z,19.16
2019-06-20T03:02:34.487Z,19.11
2019-06-20T03:05:01.638Z,19.04
2019-06-20T03:07:29.295Z,19.05
2019-06-20T03:09:55.908Z,19.07
2019-06-20T03:12:22.576Z,19.04
2019-06-20T03:14:49.321Z,19.04
2019-06-20T03:17:15.930Z,19.09
2019-06-20T03:19:42.507Z,19.12
2019-06-20T03:22:10.483Z,19.08
2019-06-20T03:24:37.110Z,19.08
2019-06-20T03:27:03.804Z,19.16
2019-06-20T03:29:30.456Z,19.07
2019-06-20T03:31:57.034Z,19.07
2019-06-20T03:34:23.732Z,19.03
2019-06-20T03:36:52.707Z,19.04
2019-06-20T03:39:19.322Z,19.01
2019-06-20T03:41:45.943Z,19.01
2019-06-20T03:44:12.870Z,19.00
2019-06-20T03:46:39.504Z,19.05
2019-06-20T03:49:07.953Z,19.11
2019-06-20T03:51:34.559Z,19.07
2019-06-20T03:54:01.117Z,19.11
2019-06-20T03:56:27.771Z,19.09
2019-06-20T03:58:54.356Z,19.12
2019-06-20T04:01:21.853Z,19.15
2019-06-20T04:03:48.797Z,19.14
2019-06-20T04:06:16.719Z,19.11
2019-06-20T04:08:43.364Z,19.06
2019-06-20T04:11:10.005Z,19.09
2019-06-20T04:13:38.433Z,19.14
2019-06-20T04:16:07.138Z,19.15
2019-06-20T04:18:33.822Z,19.26
2019-06-20T04:21:00.435Z,19.37
2019-06-20T04:23:27.029Z,19.47
2019-06-20T04:25:53.835Z,19.46
2019-06-20T04:28:20.364Z,19.51
2019-06-20T04:30:46.987Z,19.52
2019-06-20T04:33:13.817Z,19.53
2019-06-20T04:35:40.372Z,19.57
2019-06-20T04:38:07.041Z,19.60
2019-06-20T04:40:33.634Z,19.81
2019-06-20T04:43:00.809Z,19.84
2019-06-20T04:45:47.083Z,19.80
2019-06-20T04:48:13.992Z,19.82
2019-06-20T04:50:40.645Z,19.83
2019-06-20T04:53:07.248Z,19.90
2019-06-20T04:55:34.815Z,19.98
2019-06-20T04:58:01.400Z,20.08
2019-06-20T05:00:29.221Z,20.00
2019-06-20T05:02:57.666Z,20.19
2019-06-20T05:05:24.225Z,20.10
2019-06-20T05:07:50.876Z,20.11
2019-06-20T05:10:18.457Z,20.26
2019-06-20T05:12:45.061Z,20.28
2019-06-20T05:15:12.000Z,20.17
2019-06-20T05:17:38.622Z,20.28
2019-06-20T05:20:06.590Z,20.32
2019-06-20T05:22:34.230Z,20.31
2019-06-20T05:25:00.792Z,20.44
2019-06-20T05:27:27.371Z,20.55
2019-06-20T05:29:53.954Z,20.10
2019-06-20T05:32:20.485Z,20.24
2019-06-20T05:34:47.031Z,20.24
2019-06-20T05:37:13.643Z,20.11
2019-06-20T05:39:42.863Z,20.36
2019-06-20T05:42:09.442Z,20.61
2019-06-20T05:44:37.889Z,20.81
2019-06-20T05:47:12.516Z,21.04
2019-06-20T05:49:35.543Z,21.35
2019-06-20T05:52:02.264Z,21.50
2019-06-20T05:54:28.882Z,21.61
2019-06-20T05:56:55.492Z,21.81
2019-06-20T05:59:23.789Z,22.08
2019-06-20T06:01:50.381Z,22.29
2019-06-20T06:04:17.488Z,22.31
2019-06-20T06:06:44.467Z,22.53
2019-06-20T06:09:11.374Z,22.66
2019-06-20T06:11:39.129Z,22.66
2019-06-20T06:14:05.903Z,22.84
2019-06-20T06:16:34.200Z,22.90
2019-06-20T06:19:03.667Z,23.11
2019-06-20T06:21:37.018Z,23.21
2019-06-20T06:27:02.712Z,23.36
2019-06-20T06:29:31.822Z,23.47
2019-06-20T06:32:03.816Z,23.75
2019-06-20T06:34:33.342Z,23.89
2019-06-20T06:37:04.018Z,24.02
2019-06-20T06:39:33.160Z,24.24
2019-06-20T06:42:02.300Z,24.34
2019-06-20T06:44:32.177Z,24.56
2019-06-20T06:47:00.688Z,24.88
2019-06-20T06:49:32.812Z,24.87
2019-06-20T06:52:03.463Z,24.85
2019-06-20T06:54:31.047Z,24.96
2019-06-20T06:56:59.923Z,25.20
2019-06-20T06:59:28.589Z,25.32
2019-06-20T07:02:04.435Z,25.28
2019-06-20T07:04:41.525Z,25.37
2019-06-20T07:07:10.839Z,25.77
2019-06-20T07:09:39.789Z,25.99
2019-06-20T07:12:12.917Z,26.18
2019-06-20T07:14:43.025Z,26.45
2019-06-20T07:17:11.957Z,26.67
2019-06-20T07:19:48.785Z,26.82
2019-06-20T07:22:21.776Z,26.84
2019-06-20T07:24:51.204Z,26.77
2019-06-20T07:27:20.113Z,26.82
2019-06-20T07:29:46.725Z,27.15
2019-06-20T07:32:15.160Z,27.35
2019-06-20T07:34:52.097Z,27.60
2019-06-20T07:37:21.112Z,27.62
2019-06-20T07:40:00.453Z,27.84
2019-06-20T07:45:27.541Z,27.62
2019-06-20T07:47:56.017Z,27.43
2019-06-20T07:50:23.174Z,27.94
2019-06-20T07:53:02.356Z,28.22
2019-06-20T07:55:29.461Z,28.59
2019-06-20T07:57:56.058Z,28.75
2019-06-20T08:00:24.596Z,28.97
2019-06-20T08:02:51.556Z,29.17
2019-06-20T08:05:18.548Z,29.33
2019-06-20T08:07:45.259Z,29.58
2019-06-20T08:10:14.771Z,29.72
2019-06-20T08:12:41.460Z,29.35
2019-06-20T08:15:15.125Z,28.27
2019-06-20T08:17:38.195Z,28.19
2019-06-20T08:20:07.187Z,28.26
2019-06-20T08:22:34.745Z,28.74
2019-06-20T08:25:01.538Z,29.05
2019-06-20T08:27:46.586Z,29.17
2019-06-20T08:30:13.402Z,28.90
2019-06-20T08:32:40.093Z,29.24
2019-06-20T08:35:07.794Z,29.18
2019-06-20T08:37:34.394Z,29.13
2019-06-20T08:40:02.038Z,29.41
2019-06-20T08:42:28.939Z,29.16
2019-06-20T08:44:57.853Z,29.32
2019-06-20T08:47:24.661Z,29.42
2019-06-20T08:49:51.318Z,29.45
2019-06-20T08:55:35.101Z,29.18
2019-06-20T08:58:06.458Z,29.53
2019-06-20T09:00:35.289Z,29.91
2019-06-20T09:03:05.321Z,30.19
2019-06-20T09:05:31.892Z,30.55
2019-06-20T09:08:00.388Z,30.82
2019-06-20T09:10:30.821Z,30.72
2019-06-20T09:13:01.396Z,30.46
2019-06-20T09:15:28.039Z,30.45
2019-06-20T09:17:55.231Z,30.86
2019-06-20T09:20:23.269Z,30.98
2019-06-20T09:22:50.258Z,30.81
2019-06-20T09:25:17.241Z,30.72
2019-06-20T09:27:44.913Z,30.91
2019-06-20T09:30:14.079Z,31.21
2019-06-20T09:32:40.681Z,30.87
2019-06-20T09:35:09.939Z,31.00
2019-06-20T09:37:37.422Z,31.19
2019-06-20T09:40:05.180Z,31.12
2019-06-20T09:42:31.743Z,31.31
2019-06-20T09:44:58.481Z,31.66
2019-06-20T09:47:25.140Z,31.80
2019-06-20T09:49:55.073Z,31.81
2019-06-20T09:52:20.224Z,32.18
2019-06-20T09:54:48.462Z,32.70
2019-06-20T09:57:15.363Z,33.04
2019-06-20T09:59:56.178Z,33.16
2019-06-20T10:02:11.135Z,33.26
2019-06-20T10:04:38.545Z,33.12
2019-06-20T10:07:05.463Z,32.44
2019-06-20T10:09:32.094Z,32.22
2019-06-20T10:11:58.715Z,32.76
2019-06-20T10:14:25.301Z,32.67
2019-06-20T10:16:53.980Z,32.35
2019-06-20T10:19:22.230Z,32.81
2019-06-20T10:21:49.650Z,32.31
2019-06-20T10:24:16.267Z,32.30
2019-06-20T10:26:42.875Z,32.52
2019-06-20T10:29:09.868Z,32.64
2019-06-20T10:31:36.362Z,33.10
2019-06-20T10:34:03.813Z,33.22
2019-06-20T10:36:30.404Z,33.36
2019-06-20T10:38:57.038Z,33.55
2019-06-20T10:41:26.514Z,33.79
2019-06-20T10:43:56.637Z,33.62
2019-06-20T10:46:24.582Z,33.50
2019-06-20T10:48:54.922Z,33.96
2019-06-20T10:51:31.866Z,34.10
2019-06-20T10:54:00.228Z,34.12
2019-06-20T10:56:28.609Z,33.90
2019-06-20T10:58:55.251Z,33.37
2019-06-20T11:01:22.065Z,33.24
2019-06-20T11:03:49.914Z,33.64
2019-06-20T11:06:17.912Z,34.10
2019-06-20T11:08:45.135Z,34.45
2019-06-20T11:11:13.516Z,34.76
2019-06-20T11:13:40.550Z,34.97
2019-06-20T11:16:09.753Z,34.97
2019-06-20T11:18:37.353Z,35.08
2019-06-20T11:21:08.220Z,34.97
2019-06-20T11:23:34.815Z,35.20
2019-06-20T11:26:01.389Z,35.49
2019-06-20T11:28:28.955Z,35.02
2019-06-20T11:31:00.165Z,34.74
2019-06-20T11:33:24.005Z,34.72
2019-06-20T11:35:50.919Z,34.47
2019-06-20T11:38:17.905Z,34.17
2019-06-20T11:40:44.487Z,34.21
2019-06-20T11:43:12.893Z,34.57
2019-06-20T11:45:40.917Z,34.58
2019-06-20T11:48:12.735Z,34.75
2019-06-20T11:50:50.170Z,34.67
2019-06-20T11:53:29.603Z,34.62
2019-06-20T11:55:56.218Z,34.91
2019-06-20T12:01:29.752Z,35.43
2019-06-20T12:03:46.985Z,35.71
2019-06-20T12:06:13.589Z,35.86
2019-06-20T12:11:27.575Z,36.06
2019-06-20T12:13:54.272Z,36.02
2019-06-20T12:16:20.844Z,36.01
2019-06-20T12:18:47.386Z,35.70
2019-06-20T12:21:14.014Z,35.93
2019-06-20T12:23:44.952Z,35.97
2019-06-20T12:26:11.550Z,35.55
2019-06-20T12:28:39.640Z,35.30
2019-06-20T12:31:28.265Z,35.31
2019-06-20T12:33:50.952Z,35.10
2019-06-20T12:36:17.563Z,34.84
2019-06-20T12:38:44.111Z,34.99
2019-06-20T12:41:19.257Z,34.76
2019-06-20T12:43:52.007Z,35.10
2019-06-20T12:46:26.414Z,35.50
2019-06-20T12:48:58.216Z,35.89
2019-06-20T12:51:25.085Z,35.98
2019-06-20T12:53:53.485Z,35.74
2019-06-20T12:56:21.358Z,35.47
2019-06-20T12:58:48.523Z,35.19
2019-06-20T13:01:15.353Z,34.59
2019-06-20T13:03:42.811Z,34.70
2019-06-20T13:06:15.236Z,34.91
2019-06-20T13:08:51.065Z,35.24
2019-06-20T13:11:17.593Z,35.19
2019-06-20T13:13:46.589Z,35.36
2019-06-20T13:16:13.602Z,35.58
2019-06-20T13:18:41.370Z,35.22
2019-06-20T13:21:08.809Z,35.41
2019-06-20T13:23:39.723Z,35.26
2019-06-20T13:26:06.776Z,34.90
2019-06-20T13:28:33.640Z,34.73
2019-06-20T13:31:19.878Z,34.09
2019-06-20T13:34:00.923Z,33.60
2019-06-20T13:36:27.532Z,33.48
2019-06-20T13:38:54.112Z,33.70
2019-06-20T13:41:20.701Z,33.52
2019-06-20T13:43:47.311Z,33.69
2019-06-20T13:46:14.199Z,33.68
2019-06-20T13:48:42.619Z,33.77
2019-06-20T13:51:10.063Z,34.22
2019-06-20T13:53:42.581Z,34.47
2019-06-20T13:56:13.798Z,34.80
2019-06-20T13:58:57.737Z,34.90
2019-06-20T14:01:24.403Z,34.77
2019-06-20T14:03:51.226Z,34.78
2019-06-20T14:06:17.825Z,34.46
2019-06-20T14:08:45.957Z,34.31
2019-06-20T14:11:16.943Z,33.72
2019-06-20T14:13:53.065Z,33.80
2019-06-20T14:16:30.462Z,33.41
2019-06-20T14:18:59.021Z,33.10
2019-06-20T14:21:25.639Z,32.89
2019-06-20T14:24:07.260Z,32.60
2019-06-20T14:26:46.742Z,31.97
2019-06-20T14:29:15.656Z,31.18
2019-06-20T14:31:44.394Z,30.97
2019-06-20T14:34:15.424Z,31.03
2019-06-20T14:37:10.106Z,31.20
2019-06-20T14:39:38.715Z,31.51
2019-06-20T14:42:05.276Z,30.62
2019-06-20T14:44:33.013Z,30.53
2019-06-20T14:46:59.662Z,30.24
2019-06-20T14:49:28.114Z,30.04
2019-06-20T14:51:58.677Z,30.18
2019-06-20T14:54:26.670Z,30.11
2019-06-20T14:56:53.959Z,29.81
2019-06-20T14:59:20.606Z,29.51
2019-06-20T15:01:48.021Z,29.80
2019-06-20T15:04:14.734Z,29.69
2019-06-20T15:06:42.421Z,29.10
2019-06-20T15:09:09.053Z,28.88
2019-06-20T15:11:37.456Z,28.16
2019-06-20T15:14:06.885Z,28.37
2019-06-20T15:16:34.664Z,28.06
2019-06-20T15:19:04.348Z,27.92
2019-06-20T15:21:30.980Z,27.60
2019-06-20T15:23:57.973Z,27.35
2019-06-20T15:26:25.374Z,27.30
2019-06-20T15:28:55.018Z,27.44
2019-06-20T15:31:21.603Z,27.44
2019-06-20T15:33:49.344Z,27.71
2019-06-20T15:36:17.135Z,27.99
2019-06-20T15:38:43.867Z,28.10
2019-06-20T15:41:12.447Z,27.97
2019-06-20T15:43:39.015Z,28.05
2019-06-20T15:46:05.970Z,28.24
2019-06-20T15:48:32.583Z,28.45
2019-06-20T15:50:59.189Z,28.66
2019-06-20T15:53:25.808Z,28.83
2019-06-20T15:55:52.585Z,29.12
2019-06-20T15:58:19.215Z,29.16
2019-06-20T16:00:45.811Z,29.05
2019-06-20T16:03:14.880Z,28.73
2019-06-20T16:05:41.657Z,28.65
2019-06-20T16:08:08.287Z,28.78
2019-06-20T16:10:34.905Z,28.90
2019-06-20T16:13:01.474Z,28.86
2019-06-20T16:15:29.923Z,28.94
2019-06-20T16:17:56.545Z,28.87
2019-06-20T16:20:24.960Z,28.97
2019-06-20T16:22:52.088Z,28.89
2019-06-20T16:25:19.889Z,28.59
2019-06-20T16:27:47.018Z,28.39
2019-06-20T16:30:17.291Z,28.25
2019-06-20T16:32:43.955Z,28.34
2019-06-20T16:35:11.708Z,28.29
2019-06-20T16:37:40.360Z,28.07
2019-06-20T16:40:08.937Z,27.78
2019-06-20T16:42:35.652Z,27.63
2019-06-20T16:45:10.031Z,27.41
2019-06-20T16:47:37.038Z,27.27
2019-06-20T16:50:05.373Z,27.20
2019-06-20T16:52:32.032Z,27.13
2019-06-20T16:54:58.633Z,26.95
2019-06-20T19:55:28.259Z,24.21
2019-06-20T19:57:54.950Z,24.11
2019-06-20T20:00:23.451Z,24.14
2019-06-20T20:02:50.087Z,24.06
2019-06-20T20:05:19.418Z,24.01
2019-06-20T20:07:45.430Z,23.97
2019-06-20T20:10:12.069Z,23.87
2019-06-20T20:12:38.729Z,23.75
2019-06-20T20:15:10.647Z,23.68
2019-06-20T20:17:37.335Z,23.63
2019-06-20T20:20:05.933Z,23.60
2019-06-20T20:22:34.194Z,23.60
2019-06-20T20:25:04.216Z,23.58
2019-06-20T20:27:30.828Z,23.57
2019-06-20T20:29:58.436Z,23.51
2019-06-20T20:32:25.127Z,23.46
2019-06-20T20:34:51.768Z,23.41
2019-06-20T20:37:18.590Z,23.37
2019-06-20T20:39:45.218Z,23.37
2019-06-20T20:42:11.862Z,23.38
2019-06-20T20:44:39.291Z,23.34
2019-06-20T20:47:07.928Z,23.33
2019-06-20T20:49:34.545Z,23.26
2019-06-20T20:52:03.278Z,23.24
2019-06-20T20:54:29.962Z,23.23
2019-06-20T20:56:58.089Z,23.15
2019-06-20T20:59:24.957Z,23.12
2019-06-20T21:01:52.793Z,23.13
2019-06-20T21:04:19.447Z,23.06
2019-06-20T21:06:46.166Z,23.03
2019-06-20T21:09:12.823Z,22.99
2019-06-20T21:11:41.211Z,22.93
2019-06-20T21:14:07.867Z,22.87
2019-06-20T21:16:35.111Z,22.85
2019-06-20T21:19:03.022Z,22.88
2019-06-20T21:21:29.689Z,22.79
2019-06-20T21:23:56.338Z,22.80
2019-06-20T21:26:22.972Z,22.78
2019-06-20T21:28:49.577Z,22.81
2019-06-20T21:31:16.280Z,22.79
2019-06-20T21:33:43.101Z,22.76
2019-06-20T21:36:10.832Z,22.66
2019-06-20T21:38:37.489Z,22.61
2019-06-20T21:41:04.127Z,22.57
2019-06-20T21:43:30.847Z,22.51
2019-06-20T21:45:57.492Z,22.48
2019-06-20T21:48:24.072Z,22.46
2019-06-20T21:50:53.835Z,22.44
2019-06-20T21:53:20.559Z,22.42
2019-06-20T21:55:47.213Z,22.55
2019-06-20T21:58:14.336Z,22.59
2019-06-20T22:00:46.157Z,22.63
2019-06-20T22:03:14.836Z,22.64
2019-06-20T22:05:41.517Z,22.62
2019-06-20T22:08:09.296Z,22.59
2019-06-20T22:10:35.904Z,22.59
2019-06-20T22:13:04.518Z,22.47
2019-06-20T22:15:32.273Z,22.48
2019-06-20T22:17:58.883Z,22.52
2019-06-20T22:20:26.971Z,22.36
2019-06-20T22:22:53.711Z,22.01
2019-06-20T22:25:21.107Z,22.01
2019-06-20T22:27:47.917Z,21.89
2019-06-20T22:30:15.748Z,21.86
2019-06-20T22:32:42.370Z,21.90
2019-06-20T22:35:09.116Z,21.78
2019-06-20T22:37:36.453Z,21.78
2019-06-20T22:40:08.410Z,21.84
2019-06-20T22:42:36.892Z,21.80
2019-06-20T22:45:08.386Z,21.82
2019-06-20T22:47:36.345Z,21.89
2019-06-20T22:50:06.598Z,21.88
2019-06-20T22:52:35.031Z,21.89
2019-06-20T22:55:01.792Z,21.79
2019-06-20T22:57:28.442Z,21.77
2019-06-20T22:59:57.807Z,21.68
2019-06-20T23:02:26.253Z,21.68
2019-06-20T23:04:57.675Z,21.69
2019-06-20T23:07:25.761Z,21.64
2019-06-20T23:10:08.944Z,21.57
2019-06-20T23:12:22.350Z,21.56
2019-06-20T23:14:49.157Z,21.54
2019-06-20T23:17:15.781Z,21.54
2019-06-20T23:19:42.414Z,21.49
2019-06-20T23:24:35.448Z,21.53
2019-06-20T23:27:02.199Z,21.49
2019-06-20T23:29:28.862Z,21.49
2019-06-20T23:31:55.550Z,21.47
2019-06-20T23:34:22.369Z,21.40
2019-06-20T23:36:48.966Z,21.40
2019-06-20T23:39:15.571Z,21.44
2019-06-20T23:41:42.288Z,21.41
2019-06-20T23:44:08.891Z,21.42
2019-06-20T23:46:35.559Z,21.40
2019-06-20T23:49:02.859Z,21.38
2019-06-20T23:51:31.280Z,21.43
2019-06-20T23:53:59.010Z,21.41
2019-06-20T23:56:25.638Z,21.33
2019-06-20T23:58:52.267Z,21.33
